Whiteville, NC

11:50 PM EDT on September 23, 2014 (GMT -0400)
CCSkywatch | Change Station
CLOSE
Current Station
Personal Weather Station
Location: Whiteville, NC
Elevation: 91 ft
Nearby Weather Stations

Elev 91 ft 34.41 °N, 78.75 °W | Updated 13 seconds ago

Rain
Rain
58.1 °F
Feels Like 58.1 °F
N
7.0
Wind Variable Wind from NNE
Gusts 11.0 mph

Today
High -- | Low -- °F
--% Chance of Precip.
Yesterday
High -- | Low -- °F
Precip. -- in
7:03 AM 7:10 PM
Waning Crescent, 0% visible
Pressure 30.21 in
Visibility 10.0 miles
Clouds Scattered Clouds 4300 ft
Mostly Cloudy 6000 ft
Overcast 9000 ft
Dew Point 56 °F
Humidity 91%
Rainfall 0.20 in
Snow Depth Not available.
UV 0 out of 12
Pollen 6.90 out of 12
Air Quality Not available.
Flu Activity Not available.
METAR KCPC 240335Z AUTO 02005KT 10SM RA SCT043 BKN060 OVC090 15/14 A3021 RMK AO2 T01450135

More Conditions Fewer Conditions

Pressure 30.21 in
Visibility 10.0 miles
Clouds Scattered Clouds 4300 ft
Mostly Cloudy 6000 ft
Overcast 9000 ft
Dew Point 56 °F
Humidity 91%
Rainfall 0.20 in
Snow Depth Not available.
UV 0 out of 12
Pollen 6.90 out of 12
Air Quality Not available.
Flu Activity Not available.
METAR KCPC 240335Z AUTO 02005KT 10SM RA SCT043 BKN060 OVC090 15/14 A3021 RMK AO2 T01450135

More Conditions Fewer Conditions

10-Day Weather Forecast

Almanac

Astronomy

Sep. 23, 2014 Rise Set
Actual Time 7:03 AM EDT 7:10 PM EDT
Civil Twilight 6:38 AM EDT 7:35 PM EDT
Nautical Twilight 6:09 AM EDT 8:04 PM EDT
Astronomical Twilight 5:39 AM EDT 8:33 PM EDT
Moon 6:26 AM EDT (9/23) 6:48 PM EDT (9/23)
Length of Visible Light 12h 56m
Length of Day
12h 06m
Tomorrow will be 2m 7s shorter.
Waning Crescent, 0% of the Moon is Illuminated
Today
Waning Crescent
Sep 24
New
Oct 1
First Quarter
Oct 8
Full
Oct 15
Last Quarter

Today's Extremes

State Highs State Lows

Community

WunderPhotos

Upload Photos

1,755,878 photos uploaded!

WunderBlogs® & News

Nearby

Snow Depth

Station Depth Elevation
No new snow has been reported.

Earthquake Activity

City Distance Mag. Time & Date
No recent earthquake activity has been reported nearby.
Minimum magnitude displayed is 2.5.

Coastal Water Temperatures

Place Temperature
No Stations Reporting

Nearby Weather Stations